createdAt,value
2022-10-11T00:00:10.518Z,0.00
2022-10-11T00:01:10.520Z,0.00
2022-10-11T00:02:10.465Z,0.00
2022-10-11T00:03:10.461Z,0.00
2022-10-11T00:04:10.464Z,0.00
2022-10-11T00:05:10.467Z,0.00
2022-10-11T00:06:10.476Z,0.00
2022-10-11T00:07:10.438Z,0.00
2022-10-11T00:08:10.441Z,0.00
2022-10-11T00:09:10.418Z,0.00
2022-10-11T00:10:10.414Z,0.00
2022-10-11T00:11:10.406Z,0.00
2022-10-11T00:12:10.442Z,0.00
2022-10-11T00:13:10.390Z,0.00
2022-10-11T00:14:10.383Z,0.00
2022-10-11T00:15:10.547Z,0.00
2022-10-11T00:16:10.401Z,0.00
2022-10-11T00:17:10.363Z,0.00
2022-10-11T00:18:10.374Z,0.00
2022-10-11T00:19:10.357Z,0.00
2022-10-11T00:20:10.360Z,0.00
2022-10-11T00:21:10.336Z,0.00
2022-10-11T00:22:10.341Z,0.00
2022-10-11T00:23:10.873Z,0.00
2022-10-11T00:24:10.306Z,0.00
2022-10-11T00:25:10.308Z,0.00
2022-10-11T00:26:10.339Z,0.00
2022-10-11T00:27:10.278Z,0.00
2022-10-11T00:28:10.306Z,0.00
2022-10-11T00:29:10.284Z,0.00
2022-10-11T00:30:10.261Z,0.00
2022-10-11T00:31:10.271Z,0.00
2022-10-11T00:32:10.245Z,0.00
2022-10-11T00:33:10.232Z,0.00
2022-10-11T00:34:10.251Z,0.00
2022-10-11T00:35:10.220Z,0.00
2022-10-11T00:36:10.214Z,0.00
2022-10-11T00:37:10.203Z,0.00
2022-10-11T00:38:10.189Z,0.00
2022-10-11T00:39:10.201Z,0.00
2022-10-11T00:40:10.188Z,0.00
2022-10-11T00:41:10.161Z,0.00
2022-10-11T00:42:10.155Z,0.00
2022-10-11T00:43:10.147Z,0.00
2022-10-11T00:44:10.144Z,0.00
2022-10-11T00:45:10.137Z,0.00
2022-10-11T00:46:10.165Z,0.00
2022-10-11T00:47:10.147Z,0.00
2022-10-11T00:48:10.129Z,0.00
2022-10-11T00:49:10.137Z,0.00
2022-10-11T00:50:10.101Z,0.00
2022-10-11T00:51:10.091Z,0.00
2022-10-11T00:52:10.103Z,0.00
2022-10-11T00:53:10.072Z,0.00
2022-10-11T00:54:10.058Z,0.00
2022-10-11T00:55:10.062Z,0.00
2022-10-11T00:56:10.053Z,0.00
2022-10-11T00:57:10.061Z,0.00
2022-10-11T00:58:10.032Z,0.00
2022-10-11T00:59:10.071Z,0.00
2022-10-11T01:00:10.019Z,0.00
2022-10-11T01:01:10.040Z,0.00
2022-10-11T01:02:10.007Z,0.00
2022-10-11T01:03:10.004Z,0.00
2022-10-11T01:04:09.986Z,0.00
2022-10-11T01:05:28.491Z,0.00
2022-10-11T01:06:10.964Z,0.00
2022-10-11T01:07:09.956Z,0.00
2022-10-11T01:08:09.942Z,0.00
2022-10-11T01:09:09.948Z,0.00
2022-10-11T01:10:09.931Z,0.00
2022-10-11T01:11:09.948Z,0.00
2022-10-11T01:12:09.921Z,0.00
2022-10-11T01:13:09.912Z,0.00
2022-10-11T01:14:09.904Z,0.00
2022-10-11T01:15:09.904Z,0.00
2022-10-11T01:16:09.912Z,0.00
2022-10-11T01:17:09.907Z,0.00
2022-10-11T01:18:09.870Z,0.00
2022-10-11T01:19:09.881Z,0.00
2022-10-11T01:20:09.853Z,0.00
2022-10-11T01:22:35.981Z,0.00
2022-10-11T01:23:36.008Z,0.00
2022-10-11T01:24:35.973Z,0.00
2022-10-11T01:25:35.970Z,0.00
2022-10-11T01:26:35.969Z,0.00
2022-10-11T01:27:35.960Z,0.00
2022-10-11T01:28:35.978Z,0.00
2022-10-11T01:29:36.398Z,0.00
2022-10-11T01:30:35.933Z,0.00
2022-10-11T01:31:35.924Z,0.00
2022-10-11T01:32:35.913Z,0.00
2022-10-11T01:33:35.896Z,0.00
2022-10-11T01:34:35.940Z,0.00
2022-10-11T01:35:35.903Z,0.00
2022-10-11T01:36:35.881Z,0.00
2022-10-11T01:37:35.870Z,0.00
2022-10-11T01:38:35.853Z,0.00
2022-10-11T01:39:35.850Z,0.00
2022-10-11T01:40:35.865Z,0.00
2022-10-11T01:41:35.844Z,0.00
2022-10-11T01:42:35.830Z,0.00
2022-10-11T01:43:35.837Z,0.00
2022-10-11T01:44:35.816Z,0.00
2022-10-11T01:45:35.803Z,0.00
2022-10-11T01:46:35.922Z,0.00
2022-10-11T01:47:35.790Z,0.00
2022-10-11T01:48:35.773Z,0.00
2022-10-11T01:49:35.785Z,0.00
2022-10-11T01:50:35.783Z,0.00
2022-10-11T01:51:35.777Z,0.00
2022-10-11T01:52:35.787Z,0.00
2022-10-11T01:53:35.745Z,0.00
2022-10-11T01:55:04.050Z,0.00
2022-10-11T01:55:36.730Z,0.00
2022-10-11T01:56:35.720Z,0.00
2022-10-11T01:57:35.713Z,0.00
2022-10-11T01:58:35.733Z,0.00
2022-10-11T01:59:35.715Z,0.00
2022-10-11T02:00:35.680Z,0.00
2022-10-11T02:01:35.764Z,0.00
2022-10-11T02:02:35.669Z,0.00
2022-10-11T02:03:35.675Z,0.00
2022-10-11T02:04:35.656Z,0.00
2022-10-11T02:05:35.667Z,0.00
2022-10-11T02:06:35.651Z,0.00
2022-10-11T02:07:35.636Z,0.00
2022-10-11T02:08:35.626Z,0.00
2022-10-11T02:09:35.618Z,0.00
2022-10-11T02:10:35.675Z,0.00
2022-10-11T02:11:35.630Z,0.00
2022-10-11T02:12:35.597Z,0.00
2022-10-11T02:13:35.572Z,0.00
2022-10-11T02:14:35.569Z,0.00
2022-10-11T02:15:35.571Z,0.00
2022-10-11T02:16:35.564Z,0.00
2022-10-11T02:17:35.569Z,0.00
2022-10-11T02:18:35.552Z,0.00
2022-10-11T02:19:35.535Z,0.00
2022-10-11T02:20:35.532Z,0.00
2022-10-11T02:21:35.519Z,0.00
2022-10-11T02:22:35.546Z,0.00
2022-10-11T02:23:35.509Z,0.00
2022-10-11T02:24:35.499Z,0.00
2022-10-11T02:25:35.484Z,0.00
2022-10-11T02:26:35.481Z,0.00
2022-10-11T02:27:35.496Z,0.00
2022-10-11T02:28:35.496Z,0.00
2022-10-11T02:29:35.473Z,0.00
2022-10-11T02:30:35.451Z,0.00
2022-10-11T02:31:35.437Z,0.00
2022-10-11T02:32:35.421Z,0.00
2022-10-11T02:33:35.423Z,0.00
2022-10-11T02:34:35.426Z,0.00
2022-10-11T02:35:35.418Z,0.00
2022-10-11T02:36:35.390Z,0.00
2022-10-11T02:37:35.449Z,0.00
2022-10-11T02:38:35.373Z,0.00
2022-10-11T02:39:35.370Z,0.00
2022-10-11T02:40:35.368Z,0.00
2022-10-11T02:41:35.355Z,0.00
2022-10-11T02:42:35.357Z,0.00
2022-10-11T02:43:35.492Z,0.00
2022-10-11T02:44:35.340Z,0.00
2022-10-11T02:45:35.317Z,0.00
2022-10-11T02:46:35.322Z,0.00
2022-10-11T02:47:35.330Z,0.00
2022-10-11T02:48:35.295Z,0.00
2022-10-11T02:49:35.306Z,0.00
2022-10-11T02:50:35.291Z,0.00
2022-10-11T02:51:35.278Z,0.00
2022-10-11T02:52:35.295Z,0.00
2022-10-11T02:53:35.275Z,0.00
2022-10-11T02:54:35.249Z,0.00
2022-10-11T02:55:35.241Z,0.00
2022-10-11T02:56:35.232Z,0.00
2022-10-11T02:57:35.231Z,0.00
2022-10-11T02:58:35.243Z,0.00
2022-10-11T02:59:35.213Z,0.00
2022-10-11T03:00:35.196Z,0.00
2022-10-11T03:01:35.224Z,0.00
2022-10-11T03:02:35.174Z,0.00
2022-10-11T03:03:35.200Z,0.00
2022-10-11T03:04:35.176Z,0.00
2022-10-11T03:05:35.152Z,0.00
2022-10-11T03:06:35.141Z,0.00
2022-10-11T03:07:35.133Z,0.00
2022-10-11T03:08:35.129Z,0.00
2022-10-11T03:09:35.145Z,0.00
2022-10-11T03:10:35.353Z,0.00
2022-10-11T03:11:35.101Z,0.00
2022-10-11T03:12:35.092Z,0.00
2022-10-11T03:13:35.083Z,0.00
2022-10-11T03:14:35.074Z,0.00
2022-10-11T03:15:35.080Z,0.00
2022-10-11T03:16:35.087Z,0.00
2022-10-11T03:17:36.871Z,0.00
2022-10-11T03:18:35.074Z,0.00
2022-10-11T03:19:35.077Z,0.00
2022-10-11T03:20:35.027Z,0.00
2022-10-11T03:21:35.025Z,0.00
2022-10-11T03:22:35.028Z,0.00
2022-10-11T03:23:35.003Z,0.00
2022-10-11T03:24:34.995Z,0.00
2022-10-11T03:25:34.995Z,0.00
2022-10-11T03:26:34.996Z,0.00
2022-10-11T03:27:34.975Z,0.00
2022-10-11T03:28:35.010Z,0.00
2022-10-11T03:29:34.958Z,0.00
2022-10-11T03:30:34.960Z,0.00
2022-10-11T03:31:34.938Z,0.00
2022-10-11T03:32:34.924Z,0.00
2022-10-11T03:33:34.927Z,0.00
2022-10-11T03:34:34.960Z,0.00
2022-10-11T03:35:34.894Z,0.00
2022-10-11T03:36:34.894Z,0.00
2022-10-11T03:37:34.931Z,0.00
2022-10-11T03:38:34.867Z,0.00
2022-10-11T03:39:34.863Z,0.00
2022-10-11T03:40:34.855Z,0.00
2022-10-11T03:41:34.855Z,0.00
2022-10-11T03:42:34.851Z,0.00
2022-10-11T03:43:34.856Z,0.00
2022-10-11T03:44:34.828Z,0.00
2022-10-11T03:45:34.811Z,0.00
2022-10-11T03:46:34.808Z,0.00
2022-10-11T03:47:34.796Z,0.00
2022-10-11T03:48:34.871Z,0.00
2022-10-11T03:49:36.141Z,0.00
2022-10-11T03:50:34.770Z,0.00
2022-10-11T03:51:34.759Z,0.00
2022-10-11T03:52:34.777Z,0.00
2022-10-11T03:53:34.791Z,0.00
2022-10-11T03:54:34.742Z,0.00
2022-10-11T03:55:34.743Z,0.00
2022-10-11T03:56:34.752Z,0.00
2022-10-11T03:57:34.753Z,0.00
2022-10-11T03:58:34.708Z,0.00
2022-10-11T03:59:34.686Z,0.00
2022-10-11T04:00:34.702Z,0.00
2022-10-11T04:01:34.760Z,0.00
2022-10-11T04:02:38.959Z,0.00
2022-10-11T04:03:34.654Z,0.00
2022-10-11T04:04:34.659Z,0.00
2022-10-11T04:05:34.638Z,0.00
2022-10-11T04:06:34.660Z,0.00
2022-10-11T04:07:34.627Z,0.00
2022-10-11T04:08:34.736Z,0.00
2022-10-11T04:09:34.607Z,0.00
2022-10-11T04:10:34.704Z,0.00
2022-10-11T04:11:34.627Z,0.00
2022-10-11T04:12:34.588Z,0.00
2022-10-11T04:13:34.571Z,0.00
2022-10-11T04:14:34.579Z,0.00
2022-10-11T04:15:34.553Z,0.00
2022-10-11T04:16:34.545Z,0.00
2022-10-11T04:17:34.545Z,0.00
2022-10-11T04:18:34.540Z,0.00
2022-10-11T04:19:34.540Z,0.00
2022-10-11T04:20:34.577Z,0.00
2022-10-11T04:21:34.515Z,0.00
2022-10-11T04:22:34.508Z,0.00
2022-10-11T04:23:34.503Z,0.00
2022-10-11T04:24:34.486Z,0.00
2022-10-11T04:25:34.483Z,0.00
2022-10-11T04:26:34.499Z,0.00
2022-10-11T04:27:34.492Z,0.00
2022-10-11T04:28:34.513Z,0.00
2022-10-11T04:29:34.440Z,0.00
2022-10-11T04:30:34.445Z,0.00
2022-10-11T04:31:34.428Z,0.00
2022-10-11T04:32:34.448Z,0.00
2022-10-11T04:33:34.434Z,0.00
2022-10-11T04:34:34.414Z,0.00
2022-10-11T04:35:34.410Z,0.00
2022-10-11T04:36:34.402Z,0.00
2022-10-11T04:37:34.393Z,0.00
2022-10-11T04:38:34.400Z,0.00
2022-10-11T04:39:34.404Z,0.00
2022-10-11T04:40:34.376Z,0.00
2022-10-11T04:41:34.363Z,0.00
2022-10-11T04:42:34.356Z,0.00
2022-10-11T04:43:34.340Z,0.00
2022-10-11T04:44:34.330Z,0.00
2022-10-11T04:45:34.342Z,0.00
2022-10-11T04:46:34.344Z,0.00
2022-10-11T04:47:34.351Z,0.00
2022-10-11T04:48:34.313Z,0.00
2022-10-11T04:49:34.305Z,0.00
2022-10-11T04:50:34.315Z,0.00
2022-10-11T04:51:34.314Z,0.00
2022-10-11T04:52:34.289Z,0.00
2022-10-11T04:53:34.275Z,0.00
2022-10-11T04:54:34.270Z,0.00
2022-10-11T04:55:34.252Z,0.00
2022-10-11T04:56:34.272Z,0.00
2022-10-11T04:57:34.283Z,0.00
2022-10-11T04:58:34.263Z,0.00
2022-10-11T04:59:34.222Z,0.00
2022-10-11T05:00:34.222Z,0.00
2022-10-11T05:01:34.269Z,0.00
2022-10-11T05:02:34.469Z,0.00
2022-10-11T05:03:34.212Z,0.00
2022-10-11T05:04:34.214Z,0.00
2022-10-11T05:05:34.173Z,0.00
2022-10-11T05:06:34.223Z,0.00
2022-10-11T05:07:34.155Z,0.00
2022-10-11T05:08:34.146Z,0.00
2022-10-11T05:09:34.149Z,0.00
2022-10-11T05:10:34.164Z,0.00
2022-10-11T05:11:34.130Z,0.00
2022-10-11T05:12:34.121Z,0.00
2022-10-11T05:13:34.133Z,0.00
2022-10-11T05:14:34.107Z,0.00
2022-10-11T05:15:34.095Z,0.00
2022-10-11T05:16:34.112Z,0.00
2022-10-11T05:17:34.103Z,0.00
2022-10-11T05:18:34.078Z,0.00
2022-10-11T05:19:34.070Z,0.00
2022-10-11T05:20:34.075Z,0.00
2022-10-11T05:21:34.051Z,0.00
2022-10-11T05:22:34.049Z,0.00
2022-10-11T05:23:34.053Z,0.00
2022-10-11T05:24:34.026Z,0.00
2022-10-11T05:25:34.006Z,0.00
2022-10-11T05:26:34.038Z,0.00
2022-10-11T05:27:33.998Z,0.00
2022-10-11T05:28:34.052Z,0.00
2022-10-11T05:29:34.019Z,5.62
2022-10-11T05:30:33.982Z,5.62
2022-10-11T05:31:33.970Z,5.62
2022-10-11T05:32:33.968Z,5.62
2022-10-11T05:33:33.951Z,5.62
2022-10-11T05:34:33.954Z,5.62
2022-10-11T05:35:33.977Z,5.62
2022-10-11T05:36:33.945Z,11.25
2022-10-11T05:37:33.929Z,11.25
2022-10-11T05:38:33.921Z,11.25
2022-10-11T05:39:33.935Z,11.25
2022-10-11T05:40:33.899Z,16.88
2022-10-11T05:41:33.913Z,16.88
2022-10-11T05:42:33.908Z,16.88
2022-10-11T05:43:33.876Z,16.88
2022-10-11T05:44:33.874Z,22.50
2022-10-11T05:45:33.868Z,22.50
2022-10-11T05:46:33.845Z,22.50
2022-10-11T05:47:33.861Z,28.12
2022-10-11T05:48:33.859Z,28.12
2022-10-11T05:49:33.834Z,28.12
2022-10-11T05:50:33.820Z,33.75
2022-10-11T05:51:33.814Z,33.75
2022-10-11T05:52:33.826Z,39.38
2022-10-11T05:53:33.801Z,39.38
2022-10-11T05:54:33.788Z,45.00
2022-10-11T05:55:33.782Z,45.00
2022-10-11T05:56:33.774Z,50.62
2022-10-11T05:57:33.921Z,50.62
2022-10-11T05:58:33.792Z,56.25
2022-10-11T05:59:33.744Z,56.25
2022-10-11T06:00:33.742Z,61.88
2022-10-11T06:01:33.807Z,61.88
2022-10-11T06:02:33.727Z,67.50
2022-10-11T06:03:33.729Z,67.50
2022-10-11T06:04:33.742Z,73.12
2022-10-11T06:05:33.700Z,73.12
2022-10-11T06:06:33.686Z,73.12
2022-10-11T06:07:33.687Z,73.12
2022-10-11T06:08:33.698Z,78.75
2022-10-11T06:09:33.668Z,84.38
2022-10-11T06:10:33.679Z,90.00
2022-10-11T06:11:33.661Z,95.62
2022-10-11T06:12:33.650Z,101.25
2022-10-11T06:13:33.643Z,101.25
2022-10-11T06:14:33.661Z,101.25
2022-10-11T06:15:33.733Z,106.88
2022-10-11T06:16:33.637Z,106.88
2022-10-11T06:17:33.630Z,112.50
2022-10-11T06:18:33.607Z,118.12
2022-10-11T06:19:33.651Z,118.12
2022-10-11T06:20:33.587Z,118.12
2022-10-11T06:21:33.603Z,123.75
2022-10-11T06:22:33.578Z,123.75
2022-10-11T06:23:33.551Z,123.75
2022-10-11T06:24:33.579Z,123.75
2022-10-11T06:25:33.583Z,129.38
2022-10-11T06:26:33.641Z,129.38
2022-10-11T06:27:33.535Z,140.62
2022-10-11T06:28:33.625Z,151.88
2022-10-11T06:29:33.515Z,168.75
2022-10-11T06:30:33.507Z,180.00
2022-10-11T06:31:33.580Z,180.00
2022-10-11T06:32:33.530Z,180.00
2022-10-11T06:33:33.493Z,174.38
2022-10-11T06:34:33.486Z,168.75
2022-10-11T06:35:33.461Z,168.75
2022-10-11T06:36:33.468Z,174.38
2022-10-11T06:37:33.452Z,174.38
2022-10-11T06:38:33.496Z,191.25
2022-10-11T06:39:33.438Z,196.88
2022-10-11T06:40:33.557Z,213.75
2022-10-11T06:41:33.429Z,230.62
2022-10-11T06:42:33.555Z,241.88
2022-10-11T06:43:33.419Z,253.12
2022-10-11T06:44:33.426Z,258.75
2022-10-11T06:45:33.394Z,270.00
2022-10-11T06:46:33.410Z,281.25
2022-10-11T06:47:33.384Z,292.50
2022-10-11T06:48:33.379Z,298.12
2022-10-11T06:49:33.362Z,303.75
2022-10-11T06:50:58.086Z,303.75
2022-10-11T06:51:34.349Z,315.00
2022-10-11T06:52:33.343Z,331.88
2022-10-11T06:53:33.330Z,337.50
2022-10-11T06:54:33.332Z,337.50
2022-10-11T06:55:33.309Z,365.62
2022-10-11T06:56:33.323Z,376.88
2022-10-11T06:57:33.294Z,365.62
2022-10-11T06:58:33.316Z,348.75
2022-10-11T06:59:33.291Z,354.38
2022-10-11T07:00:33.274Z,393.75
2022-10-11T07:01:33.345Z,371.25
2022-10-11T07:02:33.277Z,365.62
2022-10-11T07:03:33.261Z,315.00
2022-10-11T07:04:33.234Z,309.38
2022-10-11T07:05:33.231Z,343.12
2022-10-11T07:06:33.225Z,371.25
2022-10-11T07:07:33.240Z,393.75
2022-10-11T07:08:33.240Z,337.50
2022-10-11T07:09:33.210Z,371.25
2022-10-11T07:10:33.203Z,298.12
2022-10-11T07:11:33.181Z,315.00
2022-10-11T07:12:33.179Z,343.12
2022-10-11T07:13:33.181Z,303.75
2022-10-11T07:14:33.191Z,309.38
2022-10-11T07:15:33.164Z,309.38
2022-10-11T07:16:33.145Z,320.62
2022-10-11T07:17:33.136Z,320.62
2022-10-11T07:18:33.123Z,326.25
2022-10-11T07:19:33.154Z,371.25
2022-10-11T07:20:33.255Z,388.12
2022-10-11T07:21:35.570Z,410.62
2022-10-11T07:22:40.716Z,393.75
2022-10-11T07:23:33.087Z,371.25
2022-10-11T07:24:33.078Z,376.88
2022-10-11T07:25:33.095Z,382.50
2022-10-11T07:26:38.277Z,388.12
2022-10-11T07:27:34.056Z,371.25
2022-10-11T07:28:33.113Z,371.25
2022-10-11T07:29:33.036Z,337.50
2022-10-11T07:30:33.157Z,405.00
2022-10-11T07:31:33.044Z,393.75
2022-10-11T07:32:33.023Z,405.00
2022-10-11T07:33:33.073Z,405.00
2022-10-11T07:34:32.983Z,427.50
2022-10-11T07:35:32.985Z,444.38
2022-10-11T07:36:33.054Z,421.88
2022-10-11T07:37:32.987Z,382.50
2022-10-11T07:38:32.962Z,427.50
2022-10-11T07:39:32.960Z,421.88
2022-10-11T07:40:32.942Z,483.75
2022-10-11T07:41:32.934Z,528.75
2022-10-11T07:42:32.941Z,540.00
2022-10-11T07:43:32.937Z,720.00
2022-10-11T07:44:32.901Z,1046.25
2022-10-11T07:45:32.890Z,725.62
2022-10-11T07:46:32.905Z,675.00
2022-10-11T07:47:32.908Z,849.38
2022-10-11T07:48:32.894Z,1006.88
2022-10-11T07:49:32.858Z,860.62
2022-10-11T07:50:32.865Z,1096.88
2022-10-11T07:51:32.948Z,1344.38
2022-10-11T07:52:32.861Z,1383.75
2022-10-11T07:53:32.894Z,1518.75
2022-10-11T07:54:32.885Z,1186.88
2022-10-11T07:55:32.821Z,1445.62
2022-10-11T07:56:32.814Z,1698.75
2022-10-11T07:57:32.880Z,1350.00
2022-10-11T07:58:32.797Z,1350.00
2022-10-11T07:59:32.785Z,1473.75
2022-10-11T08:00:32.789Z,1366.88
2022-10-11T08:01:32.841Z,1636.88
2022-10-11T08:02:32.767Z,2053.12
2022-10-11T08:03:32.799Z,1968.75
2022-10-11T08:04:32.739Z,2030.62
2022-10-11T08:05:32.746Z,2458.12
2022-10-11T08:06:33.033Z,2497.50
2022-10-11T08:07:32.733Z,2649.38
2022-10-11T08:08:32.728Z,2514.38
2022-10-11T08:09:32.738Z,2413.12
2022-10-11T08:10:32.696Z,2413.12
2022-10-11T08:11:32.809Z,2643.75
2022-10-11T08:12:32.672Z,2643.75
2022-10-11T08:13:32.675Z,2795.62
2022-10-11T08:14:32.701Z,2829.38
2022-10-11T08:15:32.751Z,2835.00
2022-10-11T08:16:32.664Z,2514.38
2022-10-11T08:17:32.666Z,2745.00
2022-10-11T08:18:32.633Z,2896.88
2022-10-11T08:19:32.657Z,2913.75
2022-10-11T08:20:32.645Z,2761.88
2022-10-11T08:21:32.610Z,2598.75
2022-10-11T08:22:32.604Z,2700.00
2022-10-11T08:23:32.592Z,2795.62
2022-10-11T08:24:37.344Z,2750.62
2022-10-11T08:25:33.579Z,2722.50
2022-10-11T08:26:32.584Z,2806.88
2022-10-11T08:27:32.564Z,3065.62
2022-10-11T08:28:32.631Z,2964.38
2022-10-11T08:29:32.550Z,2970.00
2022-10-11T08:30:32.583Z,2840.62
2022-10-11T08:31:32.527Z,2941.88
2022-10-11T08:32:32.529Z,3155.62
2022-10-11T08:33:32.514Z,3217.50
2022-10-11T08:34:32.525Z,3105.00
2022-10-11T08:35:32.523Z,2801.25
2022-10-11T08:36:32.491Z,2913.75
2022-10-11T08:37:32.499Z,3037.50
2022-10-11T08:38:32.463Z,3031.88
2022-10-11T08:39:32.475Z,2812.50
2022-10-11T08:40:35.311Z,2981.25
2022-10-11T08:41:32.467Z,3060.00
2022-10-11T08:42:32.466Z,3054.38
2022-10-11T08:43:32.465Z,3037.50
2022-10-11T08:44:51.723Z,2947.50
2022-10-11T08:45:33.413Z,2930.62
2022-10-11T08:46:32.398Z,2919.38
2022-10-11T08:47:32.416Z,2863.12
2022-10-11T08:48:32.380Z,2711.25
2022-10-11T08:49:32.411Z,2851.88
2022-10-11T08:50:32.369Z,2851.88
2022-10-11T08:51:32.403Z,2986.88
2022-10-11T08:52:32.366Z,2953.12
2022-10-11T08:53:32.380Z,2857.50
2022-10-11T08:54:32.338Z,2542.50
2022-10-11T08:55:32.336Z,2829.38
2022-10-11T08:56:32.331Z,3031.88
2022-10-11T08:57:32.382Z,3144.38
2022-10-11T08:58:32.326Z,3172.50
2022-10-11T08:59:32.370Z,3110.62
2022-10-11T09:00:32.288Z,3616.88
2022-10-11T09:01:32.331Z,3571.88
2022-10-11T09:02:55.815Z,3009.38
2022-10-11T09:03:33.279Z,2930.62
2022-10-11T09:04:32.263Z,3037.50
2022-10-11T09:05:32.337Z,2970.00
2022-10-11T09:06:32.252Z,3341.25
2022-10-11T09:07:32.264Z,3515.62
2022-10-11T09:08:32.248Z,3346.88
2022-10-11T09:09:32.225Z,3217.50
2022-10-11T09:10:32.215Z,2947.50
2022-10-11T09:11:32.266Z,3048.75
2022-10-11T09:12:34.321Z,3403.12
2022-10-11T09:13:32.197Z,3386.25
2022-10-11T09:14:32.195Z,3386.25
2022-10-11T09:15:32.218Z,3420.00
2022-10-11T09:16:32.204Z,3408.75
2022-10-11T09:17:32.188Z,3105.00
2022-10-11T09:18:32.207Z,3228.75
2022-10-11T09:19:32.162Z,3380.62
2022-10-11T09:20:32.183Z,3206.25
2022-10-11T09:21:32.153Z,3375.00
2022-10-11T09:22:32.156Z,3330.00
2022-10-11T09:23:32.120Z,3206.25
2022-10-11T09:24:33.034Z,3217.50
2022-10-11T09:25:32.109Z,3476.25
2022-10-11T09:26:32.128Z,3465.00
2022-10-11T09:27:50.286Z,3611.25
2022-10-11T09:28:33.146Z,3566.25
2022-10-11T09:29:32.086Z,3470.62
2022-10-11T09:30:32.117Z,3240.00
2022-10-11T09:31:32.070Z,3200.62
2022-10-11T09:32:32.078Z,3313.12
2022-10-11T09:33:32.073Z,3290.62
2022-10-11T09:34:32.055Z,3099.38
2022-10-11T09:35:32.054Z,3245.62
2022-10-11T09:36:32.036Z,3420.00
2022-10-11T09:37:32.013Z,3240.00
2022-10-11T09:38:32.027Z,3369.38
2022-10-11T09:39:31.995Z,3166.88
2022-10-11T09:40:31.988Z,3223.12
2022-10-11T09:41:32.055Z,3206.25
2022-10-11T09:42:31.976Z,3268.12
2022-10-11T09:43:31.983Z,3352.50
2022-10-11T09:44:31.988Z,3510.00
2022-10-11T09:45:31.963Z,3217.50
2022-10-11T09:46:31.961Z,2885.62
2022-10-11T09:47:31.947Z,2992.50
2022-10-11T09:48:31.940Z,3228.75
2022-10-11T09:49:31.919Z,3043.12
2022-10-11T09:50:31.942Z,3127.50
2022-10-11T09:51:31.915Z,3375.00
2022-10-11T09:52:31.900Z,3386.25
2022-10-11T09:53:31.916Z,3363.75
2022-10-11T09:54:31.888Z,3330.00
2022-10-11T09:55:31.875Z,3391.88
2022-10-11T09:56:31.869Z,3465.00
2022-10-11T09:57:31.860Z,3515.62
2022-10-11T09:58:31.867Z,3358.12
2022-10-11T09:59:31.861Z,3335.62
2022-10-11T10:00:31.835Z,3487.50
2022-10-11T10:01:31.903Z,3532.50
2022-10-11T10:02:31.836Z,3403.12
2022-10-11T10:03:31.840Z,3335.62
2022-10-11T10:04:31.842Z,3093.75
2022-10-11T10:05:31.802Z,3240.00
2022-10-11T10:06:31.817Z,3476.25
2022-10-11T10:07:31.798Z,3594.38
2022-10-11T10:08:31.793Z,3639.38
2022-10-11T10:09:31.900Z,3313.12
2022-10-11T10:10:31.787Z,3346.88
2022-10-11T10:11:31.756Z,3262.50
2022-10-11T10:12:31.778Z,3065.62
2022-10-11T10:13:31.791Z,2863.12
2022-10-11T10:14:31.774Z,3009.38
2022-10-11T10:15:31.746Z,3240.00
2022-10-11T10:16:31.789Z,3054.38
2022-10-11T10:17:31.714Z,2981.25
2022-10-11T10:18:31.712Z,2992.50
2022-10-11T10:19:31.702Z,3003.75
2022-10-11T10:20:31.694Z,2941.88
2022-10-11T10:21:31.673Z,2998.12
2022-10-11T10:22:31.687Z,3155.62
2022-10-11T10:23:31.694Z,3341.25
2022-10-11T10:24:31.661Z,3403.12
2022-10-11T10:25:31.658Z,3408.75
2022-10-11T10:26:31.658Z,3352.50
2022-10-11T10:27:31.649Z,3431.25
2022-10-11T10:28:31.750Z,3223.12
2022-10-11T10:29:31.626Z,3133.12
2022-10-11T10:30:35.359Z,3138.75
2022-10-11T10:31:32.826Z,3290.62
2022-10-11T10:32:32.599Z,3037.50
2022-10-11T10:33:31.590Z,2041.88
2022-10-11T10:34:31.606Z,1231.88
2022-10-11T10:35:31.598Z,1096.88
2022-10-11T10:36:31.612Z,1068.75
2022-10-11T10:37:31.567Z,1046.25
2022-10-11T10:38:31.556Z,1012.50
2022-10-11T10:39:31.573Z,1012.50
2022-10-11T10:40:31.637Z,990.00
2022-10-11T10:41:31.555Z,967.50
2022-10-11T10:42:31.552Z,961.88
2022-10-11T10:43:31.533Z,950.62
2022-10-11T10:44:31.559Z,945.00
2022-10-11T10:45:31.504Z,939.38
2022-10-11T10:46:31.526Z,933.75
2022-10-11T10:47:31.489Z,945.00
2022-10-11T10:48:46.915Z,933.75
2022-10-11T10:49:53.183Z,933.75
2022-10-11T10:50:32.706Z,933.75
2022-10-11T10:51:31.463Z,939.38
2022-10-11T10:52:31.467Z,933.75
2022-10-11T10:53:31.468Z,928.12
2022-10-11T10:54:31.456Z,928.12
2022-10-11T10:55:31.439Z,922.50
2022-10-11T10:56:31.427Z,916.88
2022-10-11T10:57:31.429Z,916.88
2022-10-11T10:58:31.452Z,911.25
2022-10-11T10:59:31.449Z,916.88
2022-10-11T11:00:31.488Z,911.25
2022-10-11T11:01:31.448Z,911.25
2022-10-11T11:02:46.908Z,916.88
2022-10-11T11:03:32.372Z,922.50
2022-10-11T11:04:31.370Z,928.12
2022-10-11T11:05:31.402Z,945.00
2022-10-11T11:06:34.194Z,945.00
2022-10-11T11:07:32.335Z,945.00
2022-10-11T11:08:31.325Z,933.75
2022-10-11T11:09:31.347Z,933.75
2022-10-11T11:10:31.326Z,911.25
2022-10-11T11:11:31.326Z,916.88
2022-10-11T11:12:31.298Z,911.25
2022-10-11T11:13:31.293Z,922.50
2022-10-11T11:14:31.287Z,933.75
2022-10-11T11:15:33.153Z,939.38
2022-10-11T11:16:32.303Z,956.25
2022-10-11T11:17:31.261Z,961.88
2022-10-11T11:18:31.263Z,967.50
2022-10-11T11:19:31.313Z,961.88
2022-10-11T11:20:31.258Z,967.50
2022-10-11T11:21:31.258Z,956.25
2022-10-11T11:22:32.840Z,961.88
2022-10-11T11:23:31.212Z,961.88
2022-10-11T11:24:31.440Z,973.12
2022-10-11T11:25:31.200Z,978.75
2022-10-11T11:26:31.196Z,984.38
2022-10-11T11:27:31.270Z,973.12
2022-10-11T11:28:31.338Z,973.12
2022-10-11T11:29:31.180Z,973.12
2022-10-11T11:30:31.180Z,939.38
2022-10-11T11:31:31.168Z,1001.25
2022-10-11T11:32:31.157Z,1006.88
2022-10-11T11:33:31.174Z,1012.50
2022-10-11T11:34:31.140Z,1018.12
2022-10-11T11:35:31.145Z,1035.00
2022-10-11T11:36:31.117Z,1057.50
2022-10-11T11:37:31.113Z,1096.88
2022-10-11T11:38:31.111Z,1158.75
2022-10-11T11:39:31.137Z,1406.25
2022-10-11T11:40:31.102Z,2182.50
2022-10-11T11:41:31.098Z,2829.38
2022-10-11T11:42:31.107Z,3105.00
2022-10-11T11:43:31.068Z,3273.75
2022-10-11T11:44:31.058Z,3161.25
2022-10-11T11:45:31.072Z,2829.38
2022-10-11T11:46:31.053Z,2503.12
2022-10-11T11:47:31.068Z,2542.50
2022-10-11T11:48:31.036Z,2767.50
2022-10-11T11:49:31.143Z,3105.00
2022-10-11T11:50:34.280Z,3003.75
2022-10-11T11:51:31.509Z,3155.62
2022-10-11T11:52:31.004Z,3178.12
2022-10-11T11:53:30.988Z,2728.12
2022-10-11T11:54:31.047Z,2908.12
2022-10-11T11:55:30.972Z,2756.25
2022-10-11T11:56:31.004Z,2604.38
2022-10-11T11:57:31.006Z,2823.75
2022-10-11T11:58:30.958Z,2745.00
2022-10-11T11:59:30.959Z,2418.75
2022-10-11T12:00:31.053Z,2553.75
2022-10-11T12:01:31.823Z,2868.75
2022-10-11T12:02:30.973Z,2941.88
2022-10-11T12:03:30.939Z,2716.88
2022-10-11T12:04:31.052Z,2835.00
2022-10-11T12:05:30.997Z,3065.62
2022-10-11T12:06:30.905Z,3003.75
2022-10-11T12:07:30.927Z,2863.12
2022-10-11T12:08:30.887Z,2773.12
2022-10-11T12:09:30.876Z,2733.75
2022-10-11T12:10:30.869Z,2795.62
2022-10-11T12:11:35.366Z,2593.12
2022-10-11T12:12:30.855Z,2700.00
2022-10-11T12:13:32.611Z,2581.88
2022-10-11T12:14:30.853Z,2227.50
2022-10-11T12:15:30.849Z,2379.38
2022-10-11T12:16:30.956Z,2295.00
2022-10-11T12:17:30.819Z,2030.62
2022-10-11T12:18:30.807Z,2345.62
2022-10-11T12:19:30.803Z,2587.50
2022-10-11T12:20:30.795Z,2688.75
2022-10-11T12:21:30.867Z,2514.38
2022-10-11T12:22:30.798Z,2317.50
2022-10-11T12:23:30.777Z,2362.50
2022-10-11T12:24:30.766Z,2542.50
2022-10-11T12:25:30.764Z,2520.00
2022-10-11T12:26:30.753Z,2317.50
2022-10-11T12:27:30.746Z,2233.12
2022-10-11T12:28:30.827Z,2424.38
2022-10-11T12:29:30.730Z,2666.25
2022-10-11T12:30:30.720Z,2570.62
2022-10-11T12:31:30.728Z,2244.38
2022-10-11T12:32:30.754Z,2452.50
2022-10-11T12:33:30.707Z,2463.75
2022-10-11T12:34:30.753Z,2390.62
2022-10-11T12:35:30.676Z,2328.75
2022-10-11T12:36:30.679Z,2255.62
2022-10-11T12:37:30.660Z,2379.38
2022-10-11T12:38:31.158Z,2283.75
2022-10-11T12:39:30.645Z,1991.25
2022-10-11T12:40:30.639Z,1839.38
2022-10-11T12:41:30.633Z,2030.62
2022-10-11T12:42:30.626Z,1867.50
2022-10-11T12:43:30.634Z,1681.88